createdAt,value
2023-04-16T00:01:50.212Z,96887.70
2023-04-16T00:04:20.756Z,96891.46
2023-04-16T00:06:53.549Z,96899.23
2023-04-16T00:09:24.199Z,96908.17
2023-04-16T00:11:54.404Z,96915.02
2023-04-16T00:14:24.709Z,96917.41
2023-04-16T00:16:55.504Z,96925.88
2023-04-16T00:19:26.853Z,96931.26
2023-04-16T00:21:57.242Z,96928.48
2023-04-16T00:24:27.770Z,96935.87
2023-04-16T00:26:58.886Z,96943.02
2023-04-16T00:29:30.841Z,96946.88
2023-04-16T00:32:01.298Z,96951.98
2023-04-16T00:34:32.028Z,96955.63
2023-04-16T00:37:02.356Z,96958.27
2023-04-16T00:39:32.678Z,96962.04
2023-04-16T00:42:02.941Z,96967.05
2023-04-16T00:44:35.790Z,96979.77
2023-04-16T00:47:08.597Z,96987.07
2023-04-16T00:49:39.345Z,96988.02
2023-04-16T00:52:10.041Z,96988.33
2023-04-16T00:54:41.244Z,96992.38
2023-04-16T00:57:12.131Z,96993.46
2023-04-16T00:59:43.174Z,96995.07
2023-04-16T01:02:14.264Z,96991.12
2023-04-16T01:04:44.682Z,96984.08
2023-04-16T01:07:14.890Z,96982.42
2023-04-16T01:09:45.075Z,96984.21
2023-04-16T01:12:15.418Z,96983.20
2023-04-16T01:14:48.162Z,96989.34
2023-04-16T01:17:18.769Z,96998.39
2023-04-16T01:19:48.932Z,97004.98
2023-04-16T01:22:19.082Z,97008.39
2023-04-16T01:24:49.225Z,97012.36
2023-04-16T01:27:19.899Z,97013.08
2023-04-16T01:29:50.285Z,97017.39
2023-04-16T01:32:23.907Z,97025.73
2023-04-16T01:34:54.071Z,97027.85
2023-04-16T01:37:24.225Z,97030.19
2023-04-16T01:39:54.570Z,97031.58
2023-04-16T01:42:25.036Z,97027.73
2023-04-16T01:44:55.235Z,97036.10
2023-04-16T01:47:25.540Z,97035.01
2023-04-16T01:49:55.913Z,97031.84
2023-04-16T01:52:26.288Z,97040.14
2023-04-16T01:54:57.372Z,97044.64
2023-04-16T01:57:27.599Z,97047.45
2023-04-16T01:59:58.201Z,97055.64
2023-04-16T02:02:28.944Z,97064.74
2023-04-16T02:04:59.912Z,97066.54
2023-04-16T02:07:31.354Z,97072.16
2023-04-16T02:10:01.581Z,97076.88
2023-04-16T02:12:32.081Z,97082.06
2023-04-16T02:15:03.333Z,97082.79
2023-04-16T02:17:33.712Z,97079.15
2023-04-16T02:20:06.210Z,97081.36
2023-04-16T02:22:36.732Z,97087.98
2023-04-16T02:25:08.818Z,97095.48
2023-04-16T02:27:39.236Z,97097.80
2023-04-16T02:30:12.009Z,97101.23
2023-04-16T02:32:42.724Z,97104.97
2023-04-16T02:35:15.896Z,97108.73
2023-04-16T02:37:46.513Z,97117.21
2023-04-16T02:40:17.574Z,97119.28
2023-04-16T02:42:47.784Z,97122.69
2023-04-16T02:45:19.184Z,97124.59
2023-04-16T02:47:50.743Z,97135.14
2023-04-16T02:50:21.359Z,97141.70
2023-04-16T02:52:52.348Z,97145.89
2023-04-16T02:55:22.577Z,97149.77
2023-04-16T02:57:54.021Z,97151.45
2023-04-16T03:00:25.311Z,97151.03
2023-04-16T03:02:55.886Z,97152.98
2023-04-16T03:05:27.185Z,97156.35
2023-04-16T03:07:57.336Z,97153.44
2023-04-16T03:10:28.414Z,97151.94
2023-04-16T03:12:59.193Z,97152.06
2023-04-16T03:15:30.351Z,97155.22
2023-04-16T03:18:01.401Z,97151.66
2023-04-16T03:20:31.953Z,97155.12
2023-04-16T03:23:02.347Z,97154.62
2023-04-16T03:25:32.896Z,97154.47
2023-04-16T03:28:03.608Z,97155.00
2023-04-16T03:30:35.981Z,97154.09
2023-04-16T03:33:06.613Z,97149.30
2023-04-16T03:35:36.764Z,97148.52
2023-04-16T03:38:07.612Z,97153.32
2023-04-16T03:40:38.100Z,97157.50
2023-04-16T03:43:08.283Z,97157.67
2023-04-16T03:45:39.018Z,97163.84
2023-04-16T03:48:09.932Z,97164.16
2023-04-16T03:50:40.219Z,97170.96
2023-04-16T03:53:10.575Z,97175.52
2023-04-16T03:55:40.988Z,97177.92
2023-04-16T03:58:11.404Z,97179.45
2023-04-16T04:00:44.510Z,97176.52
2023-04-16T04:03:16.830Z,97182.48
2023-04-16T04:05:47.474Z,97181.94
2023-04-16T04:08:18.112Z,97187.06
2023-04-16T04:10:48.826Z,97194.10
2023-04-16T04:13:19.039Z,97195.70
2023-04-16T04:15:49.493Z,97193.14
2023-04-16T04:18:20.116Z,97192.31
2023-04-16T04:20:50.487Z,97199.20
2023-04-16T04:23:20.898Z,97204.83
2023-04-16T04:25:51.195Z,97199.83
2023-04-16T04:28:22.405Z,97198.46
2023-04-16T04:30:52.707Z,97203.07
2023-04-16T04:33:23.135Z,97206.89
2023-04-16T04:35:53.743Z,97211.33
2023-04-16T04:38:25.074Z,97215.98
2023-04-16T04:40:55.536Z,97212.98
2023-04-16T04:43:25.935Z,97217.37
2023-04-16T04:45:56.205Z,97218.79
2023-04-16T04:48:27.386Z,97222.63
2023-04-16T04:50:57.919Z,97230.38
2023-04-16T04:53:28.434Z,97231.61
2023-04-16T04:56:10.977Z,97229.85
2023-04-16T04:58:43.954Z,97229.54
2023-04-16T05:01:14.611Z,97234.71
2023-04-16T05:03:50.848Z,97232.84
2023-04-16T05:06:21.398Z,97227.48
2023-04-16T05:08:51.812Z,97225.16
2023-04-16T05:11:22.266Z,97228.61
2023-04-16T05:13:52.493Z,97228.59
2023-04-16T05:16:23.134Z,97228.98
2023-04-16T05:18:55.897Z,97226.11
2023-04-16T05:21:26.743Z,97221.26
2023-04-16T05:23:57.474Z,97223.60
2023-04-16T05:26:28.393Z,97227.87
2023-04-16T05:28:58.673Z,97226.23
2023-04-16T05:31:29.629Z,97225.57
2023-04-16T05:34:00.818Z,97229.17
2023-04-16T05:36:31.062Z,97230.90
2023-04-16T05:39:01.255Z,97235.45
2023-04-16T05:41:32.006Z,97234.95
2023-04-16T05:44:02.297Z,97231.37
2023-04-16T05:46:32.768Z,97242.63
2023-04-16T05:49:03.364Z,97239.09
2023-04-16T05:51:33.751Z,97239.69
2023-04-16T05:54:04.283Z,97241.52
2023-04-16T05:56:34.755Z,97242.37
2023-04-16T05:59:05.334Z,97237.95
2023-04-16T06:01:35.688Z,97240.34
2023-04-16T06:04:06.582Z,97239.75
2023-04-16T06:06:37.236Z,97238.26
2023-04-16T06:09:09.571Z,97239.49
2023-04-16T06:11:40.151Z,97239.80
2023-04-16T06:14:12.546Z,97237.48
2023-04-16T06:16:43.501Z,97238.55
2023-04-16T06:19:14.247Z,97238.21
2023-04-16T06:21:44.989Z,97238.84
2023-04-16T06:24:15.614Z,97236.36
2023-04-16T06:26:47.159Z,97237.24
2023-04-16T06:29:17.658Z,97231.08
2023-04-16T06:31:48.907Z,97231.77
2023-04-16T06:34:21.036Z,97231.00
2023-04-16T06:36:52.814Z,97232.32
2023-04-16T06:39:23.496Z,97232.86
2023-04-16T06:41:54.403Z,97230.41
2023-04-16T06:44:25.166Z,97229.57
2023-04-16T06:46:55.765Z,97223.47
2023-04-16T06:49:26.497Z,97222.95
2023-04-16T06:51:57.045Z,97217.98
2023-04-16T06:54:28.343Z,97220.27
2023-04-16T06:57:00.250Z,97218.77
2023-04-16T06:59:31.085Z,97225.06
2023-04-16T07:02:02.405Z,97220.82
2023-04-16T07:04:41.120Z,97220.59
2023-04-16T07:07:22.124Z,97215.59
2023-04-16T07:10:18.672Z,97216.52
2023-04-16T07:12:49.648Z,97211.34
2023-04-16T07:15:32.867Z,97206.02
2023-04-16T07:18:03.730Z,97201.84
2023-04-16T07:20:34.260Z,97202.20
2023-04-16T07:23:05.076Z,97201.19
2023-04-16T07:25:35.591Z,97197.30
2023-04-16T07:28:06.211Z,97198.41
2023-04-16T07:30:36.734Z,97193.95
2023-04-16T07:33:07.808Z,97195.61
2023-04-16T07:35:38.245Z,97195.77
2023-04-16T07:38:11.484Z,97196.58
2023-04-16T07:40:44.730Z,97189.70
2023-04-16T07:43:16.074Z,97189.85
2023-04-16T07:45:46.783Z,97185.08
2023-04-16T07:48:19.455Z,97183.83
2023-04-16T07:50:50.039Z,97181.41
2023-04-16T07:53:24.460Z,97179.94
2023-04-16T07:55:54.719Z,97174.11
2023-04-16T07:58:25.968Z,97182.45
2023-04-16T08:00:57.858Z,97178.64
2023-04-16T08:03:29.407Z,97176.64
2023-04-16T08:06:01.100Z,97184.09
2023-04-16T08:08:31.813Z,97169.60
2023-04-16T08:11:03.722Z,97173.34
2023-04-16T08:13:36.055Z,97172.54
2023-04-16T08:16:08.156Z,97172.89
2023-04-16T08:18:41.065Z,97183.04
2023-04-16T08:21:12.642Z,97181.25
2023-04-16T08:23:43.333Z,97186.23
2023-04-16T08:26:13.687Z,97189.40
2023-04-16T08:28:46.283Z,97187.81
2023-04-16T08:31:17.021Z,97189.02
2023-04-16T08:33:48.120Z,97186.80
2023-04-16T08:36:19.004Z,97189.77
2023-04-16T08:38:53.116Z,97189.45
2023-04-16T08:41:24.219Z,97184.33
2023-04-16T08:43:57.695Z,97178.02
2023-04-16T08:46:29.482Z,97169.46
2023-04-16T08:49:01.797Z,97175.31
2023-04-16T08:54:31.663Z,97163.48
2023-04-16T08:57:02.123Z,97167.79
2023-04-16T08:59:32.700Z,97158.34
2023-04-16T09:02:06.961Z,97162.42
2023-04-16T09:04:38.623Z,97157.16
2023-04-16T09:07:09.982Z,97155.46
2023-04-16T09:09:41.581Z,97159.80
2023-04-16T09:12:12.451Z,97161.84
2023-04-16T09:14:44.180Z,97154.56
2023-04-16T09:17:14.891Z,97161.61
2023-04-16T09:19:45.963Z,97156.23
2023-04-16T09:22:17.188Z,97159.22
2023-04-16T09:24:47.806Z,97158.63
2023-04-16T09:27:19.116Z,97158.89
2023-04-16T09:29:49.884Z,97161.80
2023-04-16T09:32:27.074Z,97161.11
2023-04-16T09:34:58.855Z,97160.88
2023-04-16T09:37:31.010Z,97164.40
2023-04-16T09:40:03.975Z,97162.18
2023-04-16T09:42:37.654Z,97161.80
2023-04-16T09:45:09.904Z,97169.58
2023-04-16T09:47:45.213Z,97168.08
2023-04-16T09:50:18.581Z,97164.27
2023-04-16T09:52:51.658Z,97165.34
2023-04-16T09:55:27.792Z,97159.75
2023-04-16T09:58:04.505Z,97160.11
2023-04-16T10:00:35.456Z,97158.30
2023-04-16T10:03:14.300Z,97163.02
2023-04-16T10:05:45.106Z,97161.61
2023-04-16T10:08:16.166Z,97167.34
2023-04-16T10:10:47.147Z,97170.05
2023-04-16T10:13:19.775Z,97163.87
2023-04-16T10:15:51.903Z,97162.18
2023-04-16T10:18:22.540Z,97160.58
2023-04-16T10:20:53.178Z,97161.59
2023-04-16T10:23:26.288Z,97161.36
2023-04-16T10:25:57.810Z,97165.20
2023-04-16T10:28:29.154Z,97162.77
2023-04-16T10:31:00.546Z,97162.91
2023-04-16T10:33:33.184Z,97168.65
2023-04-16T10:36:11.261Z,97171.99
2023-04-16T10:38:42.364Z,97167.08
2023-04-16T10:41:12.915Z,97157.86
2023-04-16T10:43:46.011Z,97161.76
2023-04-16T10:46:24.831Z,97160.52
2023-04-16T10:48:57.325Z,97156.61
2023-04-16T10:51:31.850Z,97161.05
2023-04-16T10:54:20.712Z,97157.63
2023-04-16T10:56:51.801Z,97161.53
2023-04-16T10:59:24.112Z,97155.33
2023-04-16T11:01:55.902Z,97153.67
2023-04-16T11:04:37.173Z,97155.60
2023-04-16T11:07:16.089Z,97158.30
2023-04-16T11:09:53.255Z,97156.30
2023-04-16T11:12:26.946Z,97155.98
2023-04-16T11:15:03.393Z,97150.46
2023-04-16T11:17:39.938Z,97153.21
2023-04-16T11:20:19.942Z,97155.93
2023-04-16T11:22:52.049Z,97151.62
2023-04-16T11:25:22.583Z,97155.80
2023-04-16T11:27:53.499Z,97161.73
2023-04-16T11:30:31.418Z,97164.71
2023-04-16T11:33:04.424Z,97161.36
2023-04-16T11:35:34.991Z,97159.70
2023-04-16T11:38:07.015Z,97162.87
2023-04-16T11:40:37.674Z,97156.86
2023-04-16T11:43:15.563Z,97156.02
2023-04-16T11:45:58.501Z,97154.15
2023-04-16T11:48:48.043Z,97156.27
2023-04-16T11:51:18.887Z,97157.08
2023-04-16T11:53:52.559Z,97155.27
2023-04-16T11:56:30.579Z,97157.07
2023-04-16T11:59:14.827Z,97152.81
2023-04-16T12:01:48.460Z,97152.70
2023-04-16T12:04:19.927Z,97154.69
2023-04-16T12:07:10.213Z,97155.73
2023-04-16T12:09:41.835Z,97153.11
2023-04-16T12:12:30.348Z,97152.55
2023-04-16T12:15:03.252Z,97153.63
2023-04-16T12:17:35.282Z,97152.44
2023-04-16T12:20:09.719Z,97150.48
2023-04-16T12:22:42.874Z,97147.33
2023-04-16T12:25:14.585Z,97140.56
2023-04-16T12:27:49.495Z,97145.52
2023-04-16T12:30:25.977Z,97148.46
2023-04-16T12:33:16.370Z,97143.09
2023-04-16T12:35:46.820Z,97144.92
2023-04-16T12:38:17.393Z,97148.47
2023-04-16T12:40:48.185Z,97153.41
2023-04-16T12:43:19.508Z,97154.30
2023-04-16T12:45:51.214Z,97154.89
2023-04-16T12:48:21.732Z,97159.27
2023-04-16T12:50:54.557Z,97156.25
2023-04-16T12:53:25.350Z,97155.47
2023-04-16T12:55:55.991Z,97157.80
2023-04-16T12:58:26.790Z,97158.58
2023-04-16T13:00:57.294Z,97163.77
2023-04-16T13:03:28.197Z,97163.80
2023-04-16T13:05:59.134Z,97162.11
2023-04-16T13:08:29.937Z,97162.60
2023-04-16T13:11:00.759Z,97163.41
2023-04-16T13:13:31.248Z,97159.41
2023-04-16T13:16:03.806Z,97162.13
2023-04-16T13:18:36.600Z,97164.97
2023-04-16T13:21:09.673Z,97163.32
2023-04-16T13:23:40.275Z,97163.86
2023-04-16T13:26:12.945Z,97171.24
2023-04-16T13:28:43.689Z,97165.69
2023-04-16T13:31:15.515Z,97168.80
2023-04-16T13:33:46.230Z,97170.05
2023-04-16T13:36:17.412Z,97171.66
2023-04-16T13:38:47.875Z,97171.65
2023-04-16T13:41:18.657Z,97169.64
2023-04-16T13:43:49.455Z,97170.39
2023-04-16T13:46:22.780Z,97172.06
2023-04-16T13:48:53.745Z,97177.41
2023-04-16T13:51:24.175Z,97174.71
2023-04-16T13:53:55.977Z,97176.13
2023-04-16T13:56:26.880Z,97178.21
2023-04-16T13:58:57.418Z,97177.42
2023-04-16T14:01:28.952Z,97178.08
2023-04-16T14:04:01.702Z,97181.09
2023-04-16T14:06:33.034Z,97185.45
2023-04-16T14:09:04.683Z,97179.65
2023-04-16T14:11:35.264Z,97180.61
2023-04-16T14:14:05.855Z,97181.83
2023-04-16T14:16:39.103Z,97183.79
2023-04-16T14:19:11.121Z,97182.54
2023-04-16T14:21:44.925Z,97184.11
2023-04-16T14:24:17.069Z,97183.49
2023-04-16T14:26:48.093Z,97189.64
2023-04-16T14:29:19.297Z,97189.31
2023-04-16T14:31:50.514Z,97188.57
2023-04-16T14:34:20.898Z,97188.52
2023-04-16T14:36:54.567Z,97190.48
2023-04-16T14:39:25.186Z,97196.05
2023-04-16T14:41:55.975Z,97197.95
2023-04-16T14:44:26.717Z,97202.28
2023-04-16T14:47:04.675Z,97206.49
2023-04-16T14:49:35.617Z,97212.29
2023-04-16T14:52:10.712Z,97212.61
2023-04-16T14:54:41.562Z,97213.81
2023-04-16T14:57:12.582Z,97220.63
2023-04-16T14:59:42.952Z,97219.69
2023-04-16T15:02:16.005Z,97222.10
2023-04-16T15:04:46.468Z,97224.51
2023-04-16T15:07:20.026Z,97223.02
2023-04-16T15:09:52.679Z,97229.52
2023-04-16T15:12:23.420Z,97230.09
2023-04-16T15:14:53.862Z,97235.75
2023-04-16T15:17:24.235Z,97238.30
2023-04-16T15:19:54.444Z,97236.27
2023-04-16T15:22:25.131Z,97237.51
2023-04-16T15:24:58.213Z,97242.75
2023-04-16T15:27:29.658Z,97240.92
2023-04-16T15:30:00.091Z,97245.15
2023-04-16T15:32:31.404Z,97249.45
2023-04-16T15:35:02.536Z,97250.39
2023-04-16T15:37:33.347Z,97250.86
2023-04-16T15:40:05.408Z,97256.81
2023-04-16T15:42:36.766Z,97263.98
2023-04-16T15:45:11.432Z,97269.86
2023-04-16T15:47:45.093Z,97269.73
2023-04-16T15:50:15.878Z,97276.52
2023-04-16T15:52:48.577Z,97280.00
2023-04-16T15:55:20.581Z,97280.23
2023-04-16T15:57:52.798Z,97281.73
2023-04-16T16:00:23.646Z,97285.13
2023-04-16T16:02:54.322Z,97287.11
2023-04-16T16:05:25.599Z,97290.59
2023-04-16T16:07:56.192Z,97293.70
2023-04-16T16:10:28.319Z,97297.06
2023-04-16T16:13:01.658Z,97299.41
2023-04-16T16:15:33.904Z,97302.30
2023-04-16T16:18:09.659Z,97305.64
2023-04-16T16:20:41.907Z,97308.17
2023-04-16T16:23:14.687Z,97313.33
2023-04-16T16:25:46.035Z,97313.48
2023-04-16T16:28:17.724Z,97314.95
2023-04-16T16:30:48.475Z,97316.82
2023-04-16T16:33:20.008Z,97328.25
2023-04-16T16:35:50.551Z,97330.42
2023-04-16T16:38:23.396Z,97336.12
2023-04-16T16:40:58.519Z,97337.35
2023-04-16T16:43:30.316Z,97346.57
2023-04-16T16:46:01.044Z,97349.34
2023-04-16T16:48:31.782Z,97351.34
2023-04-16T16:51:04.638Z,97358.86
2023-04-16T16:53:36.928Z,97365.03
2023-04-16T16:56:08.091Z,97367.62
2023-04-16T16:58:38.608Z,97368.58
2023-04-16T17:01:09.125Z,97371.55
2023-04-16T17:03:41.542Z,97377.57
2023-04-16T17:06:12.318Z,97379.71
2023-04-16T17:08:43.100Z,97385.25
2023-04-16T17:11:15.659Z,97381.70
2023-04-16T17:13:45.970Z,97385.25
2023-04-16T17:16:17.748Z,97392.08
2023-04-16T17:18:48.401Z,97395.76
2023-04-16T17:21:19.425Z,97394.58
2023-04-16T17:23:51.260Z,97398.08
2023-04-16T17:26:22.177Z,97399.06
2023-04-16T17:28:53.002Z,97404.00
2023-04-16T17:31:25.005Z,97407.39
2023-04-16T17:33:56.954Z,97412.30
2023-04-16T17:36:31.143Z,97414.39
2023-04-16T17:39:01.463Z,97415.80
2023-04-16T17:41:31.831Z,97416.42
2023-04-16T17:44:02.081Z,97417.14
2023-04-16T17:46:35.600Z,97422.79
2023-04-16T17:49:05.889Z,97424.07
2023-04-16T17:51:36.768Z,97422.67
2023-04-16T17:54:07.586Z,97425.79
2023-04-16T17:56:38.181Z,97426.55
2023-04-16T17:59:08.600Z,97428.15
2023-04-16T18:01:39.063Z,97429.19
2023-04-16T18:04:10.590Z,97433.66
2023-04-16T18:06:44.188Z,97427.86
2023-04-16T18:09:15.425Z,97430.58
2023-04-16T18:11:46.137Z,97434.31
2023-04-16T18:14:19.730Z,97431.83
2023-04-16T18:16:50.468Z,97431.33
2023-04-16T18:19:23.094Z,97433.94
2023-04-16T18:21:53.244Z,97436.92
2023-04-16T18:24:23.727Z,97437.48
2023-04-16T18:26:55.325Z,97440.46
2023-04-16T18:29:27.036Z,97439.59
2023-04-16T18:31:58.135Z,97435.25
2023-04-16T18:34:29.791Z,97439.73
2023-04-16T18:37:00.790Z,97438.95
2023-04-16T18:39:36.153Z,97438.00
2023-04-16T18:42:06.718Z,97441.33
2023-04-16T18:44:37.168Z,97440.84
2023-04-16T18:47:07.535Z,97443.69
2023-04-16T18:49:38.982Z,97441.21
2023-04-16T18:52:09.871Z,97442.83
2023-04-16T18:54:44.488Z,97440.91
2023-04-16T18:57:18.692Z,97442.34
2023-04-16T18:59:50.233Z,97448.11
2023-04-16T19:02:21.204Z,97449.85
2023-04-16T19:04:51.721Z,97447.54
2023-04-16T19:07:23.038Z,97451.23
2023-04-16T19:09:53.636Z,97454.79
2023-04-16T19:12:24.171Z,97460.99
2023-04-16T19:14:54.562Z,97461.82
2023-04-16T19:17:25.274Z,97464.30
2023-04-16T19:19:55.705Z,97461.48
2023-04-16T19:22:26.448Z,97464.52
2023-04-16T19:24:58.374Z,97463.61
2023-04-16T19:27:33.462Z,97463.58
2023-04-16T19:30:10.549Z,97469.14
2023-04-16T19:32:41.576Z,97469.34
2023-04-16T19:35:13.355Z,97470.17
2023-04-16T19:37:45.829Z,97467.01
2023-04-16T19:40:16.693Z,97475.05
2023-04-16T19:42:47.163Z,97471.48
2023-04-16T19:45:18.223Z,97477.97
2023-04-16T19:47:50.807Z,97477.52
2023-04-16T19:50:21.282Z,97475.55
2023-04-16T19:52:57.658Z,97472.66
2023-04-16T19:55:28.183Z,97481.44
2023-04-16T19:57:59.662Z,97480.45
2023-04-16T20:00:30.033Z,97480.02
2023-04-16T20:03:00.445Z,97480.23
2023-04-16T20:05:33.292Z,97481.44
2023-04-16T20:08:03.712Z,97478.53
2023-04-16T20:10:33.917Z,97479.60
2023-04-16T20:13:06.603Z,97485.59
2023-04-16T20:15:37.999Z,97483.66
2023-04-16T20:18:09.225Z,97483.52
2023-04-16T20:20:39.575Z,97485.46
2023-04-16T20:23:17.685Z,97479.34
2023-04-16T20:25:50.073Z,97485.42
2023-04-16T20:28:21.168Z,97484.91
2023-04-16T20:30:52.168Z,97481.55
2023-04-16T20:33:22.844Z,97486.13
2023-04-16T20:35:54.349Z,97481.48
2023-04-16T20:38:25.160Z,97478.36
2023-04-16T20:41:06.114Z,97477.44
2023-04-16T20:43:38.602Z,97476.79
2023-04-16T20:46:09.851Z,97477.31
2023-04-16T20:48:41.362Z,97475.63
2023-04-16T20:51:14.363Z,97473.48
2023-04-16T20:53:45.374Z,97473.61
2023-04-16T20:56:15.547Z,97472.61
2023-04-16T20:58:46.478Z,97471.02
2023-04-16T21:01:19.133Z,97473.52
2023-04-16T21:03:51.356Z,97474.73
2023-04-16T21:06:22.374Z,97472.27
2023-04-16T21:08:52.855Z,97473.44
2023-04-16T21:11:23.183Z,97470.19
2023-04-16T21:13:53.425Z,97468.37
2023-04-16T21:16:24.428Z,97468.05
2023-04-16T21:18:54.552Z,97471.72
2023-04-16T21:21:25.643Z,97467.54
2023-04-16T21:23:55.901Z,97466.54
2023-04-16T21:26:26.565Z,97467.20
2023-04-16T21:28:57.229Z,97466.52
2023-04-16T21:31:27.979Z,97468.05
2023-04-16T21:33:58.309Z,97464.44
2023-04-16T21:36:29.019Z,97469.69
2023-04-16T21:38:59.181Z,97463.30
2023-04-16T21:41:29.581Z,97464.09
2023-04-16T21:43:59.903Z,97462.84
2023-04-16T21:46:30.240Z,97457.73
2023-04-16T21:49:00.753Z,97462.68
2023-04-16T21:51:31.610Z,97452.76
2023-04-16T21:54:02.452Z,97457.15
2023-04-16T21:56:32.739Z,97454.29
2023-04-16T21:59:03.577Z,97453.34
2023-04-16T22:01:35.251Z,97449.36
2023-04-16T22:04:07.302Z,97445.12
2023-04-16T22:06:37.696Z,97446.44
2023-04-16T22:09:09.738Z,97443.11
2023-04-16T22:11:40.542Z,97442.83
2023-04-16T22:14:10.872Z,97438.77
2023-04-16T22:16:41.708Z,97443.65
2023-04-16T22:19:13.350Z,97443.11
2023-04-16T22:21:44.096Z,97439.17
2023-04-16T22:24:14.971Z,97436.04
2023-04-16T22:26:45.401Z,97437.46
2023-04-16T22:29:16.160Z,97441.27
2023-04-16T22:31:46.700Z,97438.27
2023-04-16T22:34:17.085Z,97442.77
2023-04-16T22:36:48.002Z,97442.76
2023-04-16T22:39:18.519Z,97444.97
2023-04-16T22:41:49.903Z,97439.02
2023-04-16T22:44:22.683Z,97438.99
2023-04-16T22:46:53.395Z,97440.88
2023-04-16T22:49:24.558Z,97442.89
2023-04-16T22:51:54.755Z,97446.04
2023-04-16T22:54:29.823Z,97450.66
2023-04-16T22:57:00.699Z,97447.56
2023-04-16T22:59:31.813Z,97450.98
2023-04-16T23:02:02.646Z,97450.88
2023-04-16T23:04:33.364Z,97450.42
2023-04-16T23:07:03.623Z,97450.31
2023-04-16T23:09:34.058Z,97449.98
2023-04-16T23:12:04.538Z,97452.90
2023-04-16T23:14:34.754Z,97455.13
2023-04-16T23:17:05.487Z,97455.43
2023-04-16T23:19:37.124Z,97455.02
2023-04-16T23:22:07.376Z,97457.02
2023-04-16T23:24:37.673Z,97455.55
2023-04-16T23:27:08.549Z,97457.81
2023-04-16T23:29:38.759Z,97457.09
2023-04-16T23:32:09.293Z,97451.92
2023-04-16T23:34:39.764Z,97452.52
2023-04-16T23:37:10.514Z,97445.92
2023-04-16T23:39:40.724Z,97451.56
2023-04-16T23:42:11.315Z,97456.17
2023-04-16T23:44:41.648Z,97456.60
2023-04-16T23:47:12.427Z,97461.84
2023-04-16T23:49:42.948Z,97459.88
2023-04-16T23:52:14.793Z,97463.19
2023-04-16T23:54:45.239Z,97462.01
2023-04-16T23:57:15.531Z,97462.95
2023-04-16T23:59:48.904Z,97463.23
